Time;durP1;ratioP1;P1;durP2;ratioP2;P2;SDS_P1;SDS_P2;PMS_P1;PMS_P2;Temp;Humidity;BMP_temperature;BMP_pressure;BME280_temperature;BME280_humidity;BME280_pressure;Samples;Min_cycle;Max_cycle;Signal;HPM_P1;HPM_P2
2024/01/14 00:02:23;;;;;;;204.88;8.23;;;;;;;20.03;52.17;98706.66;7293139;19;130264;-39
2024/01/14 00:04:49;;;;;;;207.13;8.15;;;;;;;19.98;52.79;98708.88;7290846;19;130133;-39
2024/01/14 00:07:14;;;;;;;146.38;6.20;;;;;;;19.92;52.45;98688.59;7290779;19;130668;-45
2024/01/14 00:09:39;;;;;;;125.18;5.00;;;;;;;19.75;52.60;98666.78;7289894;19;129698;-44
2024/01/14 00:12:06;;;;;;;241.07;9.63;;;;;;;19.85;52.43;98682.38;7291049;19;129220;-40
2024/01/14 00:14:31;;;;;;;180.20;7.13;;;;;;;19.78;52.92;98676.09;7291246;19;129972;-41
2024/01/14 00:16:57;;;;;;;162.88;6.40;;;;;;;19.78;52.80;98665.69;7290793;19;131219;-44
2024/01/14 00:19:22;;;;;;;165.45;6.53;;;;;;;19.79;52.99;98662.09;7292564;19;129097;-45
2024/01/14 00:21:47;;;;;;;210.85;8.00;;;;;;;19.72;52.70;98650.66;7289651;19;129780;-43
2024/01/14 00:24:13;;;;;;;232.52;9.73;;;;;;;19.83;52.51;98659.06;7291006;19;130092;-39
2024/01/14 00:26:38;;;;;;;230.05;8.88;;;;;;;19.92;51.39;98657.31;7286862;19;130632;-40
2024/01/14 00:29:03;;;;;;;206.95;8.13;;;;;;;20.00;51.06;98642.53;7291439;19;129110;-37
2024/01/14 00:31:29;;;;;;;262.90;10.05;;;;;;;20.04;50.71;98643.06;7290847;19;131887;-40
2024/01/14 00:33:54;;;;;;;151.68;5.97;;;;;;;20.10;50.52;98645.88;7287930;19;130564;-42
2024/01/14 00:36:20;;;;;;;175.93;6.78;;;;;;;20.05;50.32;98631.63;7290276;19;130364;-39
2024/01/14 00:38:45;;;;;;;266.88;10.05;;;;;;;20.07;50.37;98651.41;7288498;19;129794;-38
2024/01/14 00:41:11;;;;;;;210.95;8.20;;;;;;;20.06;50.74;98635.91;7298022;19;133070;-41
2024/01/14 00:43:37;;;;;;;219.67;8.80;;;;;;;20.07;50.14;98646.19;7296390;19;131781;-42
2024/01/14 00:46:03;;;;;;;184.20;7.20;;;;;;;19.95;50.06;98615.28;7295804;19;129871;-41
2024/01/14 00:48:29;;;;;;;223.32;8.60;;;;;;;19.93;51.55;98627.66;7295955;19;129962;-40
2024/01/14 00:50:54;;;;;;;194.63;7.70;;;;;;;19.87;51.52;98628.25;7297619;19;129034;-43
2024/01/14 00:53:20;;;;;;;175.40;6.82;;;;;;;19.81;51.74;98634.06;7145934;19;2933736;-42
2024/01/14 00:55:45;;;;;;;145.02;5.93;;;;;;;19.78;52.27;98629.16;7297857;19;130865;-37
2024/01/14 00:58:11;;;;;;;254.50;9.85;;;;;;;19.76;52.11;98624.09;7298249;19;129602;-40
2024/01/14 01:00:36;;;;;;;186.93;7.28;;;;;;;19.74;52.42;98612.19;7302505;19;130839;-39
2024/01/14 01:03:01;;;;;;;176.55;6.90;;;;;;;19.74;52.63;98617.38;7299071;19;130228;-46
2024/01/14 01:05:27;;;;;;;128.48;5.18;;;;;;;19.72;52.88;98614.94;7298386;19;131145;-42
2024/01/14 01:07:52;;;;;;;275.52;10.77;;;;;;;19.58;52.36;98581.59;7297511;19;129095;-40
2024/01/14 01:10:18;;;;;;;212.75;8.43;;;;;;;19.53;52.73;98567.38;7301513;19;131059;-38
2024/01/14 01:12:43;;;;;;;167.93;6.70;;;;;;;19.68;52.62;98604.97;7299984;19;132023;-41
2024/01/14 01:15:09;;;;;;;173.65;6.88;;;;;;;19.65;53.12;98606.06;7296611;19;130340;-45
2024/01/14 01:17:34;;;;;;;201.67;7.77;;;;;;;19.68;53.23;98604.97;7299254;19;130363;-41
2024/01/14 01:20:00;;;;;;;200.45;7.80;;;;;;;19.68;53.19;98591.94;7300474;19;129593;-39
2024/01/14 01:22:26;;;;;;;163.98;6.50;;;;;;;19.83;52.49;98600.84;7298121;19;130766;-38
2024/01/14 01:24:51;;;;;;;207.82;8.05;;;;;;;19.92;51.05;98600.75;7295202;19;130499;-44
2024/01/14 01:27:17;;;;;;;235.18;9.13;;;;;;;19.93;51.11;98597.16;7298287;19;129345;-42
2024/01/14 01:29:43;;;;;;;175.70;6.82;;;;;;;19.98;50.83;98581.06;7300221;19;129042;-37
2024/01/14 01:32:09;;;;;;;193.88;7.65;;;;;;;20.02;50.73;98591.03;7298515;19;130563;-39
2024/01/14 01:34:35;;;;;;;204.05;7.95;;;;;;;20.01;50.53;98585.97;7295979;19;131323;-42
2024/01/14 01:37:00;;;;;;;179.77;7.22;;;;;;;20.06;50.45;98589.75;7298632;19;129245;-39
2024/01/14 01:39:25;;;;;;;254.43;9.85;;;;;;;20.04;50.13;98572.59;7299042;19;129648;-38
2024/01/14 01:41:51;;;;;;;188.70;7.47;;;;;;;19.90;51.03;98581.00;7299024;19;129820;-37
2024/01/14 01:44:16;;;;;;;266.17;10.80;;;;;;;19.83;51.65;98570.38;7297480;19;131395;-40
2024/01/14 01:46:42;;;;;;;171.65;6.72;;;;;;;19.77;52.26;98573.56;7298933;19;130360;-45
2024/01/14 01:49:09;;;;;;;105.93;4.25;;;;;;;19.75;52.17;98572.91;7298914;19;133508;-42
2024/01/14 01:51:35;;;;;;;108.88;4.28;;;;;;;19.73;52.74;98563.63;7297613;19;130911;-44
2024/01/14 01:54:00;;;;;;;245.17;9.63;;;;;;;19.70;52.52;98558.72;7296289;19;131105;-42
2024/01/14 01:56:26;;;;;;;187.70;7.32;;;;;;;19.68;53.00;98571.06;7297407;19;129678;-38
2024/01/14 01:58:52;;;;;;;192.10;7.57;;;;;;;19.68;53.06;98566.69;7295975;19;129491;-40
2024/01/14 02:01:21;;;;;;;181.38;7.07;;;;;;;19.68;52.67;98565.84;7297178;19;129887;-43
2024/01/14 02:03:48;;;;;;;239.77;9.35;;;;;;;19.68;52.95;98565.84;7298448;19;131876;-40
2024/01/14 02:06:15;;;;;;;131.98;5.28;;;;;;;19.67;53.29;98556.41;7298276;19;130156;-41
2024/01/14 02:08:41;;;;;;;195.63;7.78;;;;;;;19.66;53.10;98557.34;7295340;19;129376;-42
2024/01/14 02:11:06;;;;;;;164.40;6.10;;;;;;;19.71;53.08;98539.47;7296157;19;129545;-42
2024/01/14 02:13:32;;;;;;;204.90;7.95;;;;;;;19.86;51.66;98533.56;7297143;19;130323;-42
2024/01/14 02:15:57;;;;;;;180.23;7.03;;;;;;;19.92;51.16;98532.94;7298060;19;130250;-39
2024/01/14 02:18:22;;;;;;;187.40;7.28;;;;;;;19.96;51.48;98520.41;7295326;19;129841;-37
2024/01/14 02:20:48;;;;;;;121.35;4.80;;;;;;;19.69;51.47;98497.06;7297184;19;129469;-38
2024/01/14 02:23:19;;;;;;;208.70;7.80;;;;;;;19.74;52.94;98518.28;7295966;19;130278;-42
2024/01/14 02:25:44;;;;;;;189.85;7.57;;;;;;;19.60;52.51;98490.19;7295227;19;129287;-46
2024/01/14 02:28:10;;;;;;;178.63;6.88;;;;;;;19.65;53.08;98508.81;7293229;19;130790;-41
2024/01/14 02:30:36;;;;;;;168.30;6.65;;;;;;;19.62;52.67;98499.50;7297419;19;130170;-40
2024/01/14 02:33:01;;;;;;;251.38;9.98;;;;;;;19.60;52.34;98516.28;7295044;19;130474;-39
2024/01/14 02:35:27;;;;;;;177.57;6.97;;;;;;;19.88;51.81;98512.53;7297352;19;130801;-40
2024/01/14 02:37:52;;;;;;;196.27;7.93;;;;;;;19.85;51.36;98507.63;7293744;19;129369;-42
2024/01/14 02:40:17;;;;;;;126.72;5.28;;;;;;;19.84;51.02;98478.09;7295724;19;130438;-38
2024/01/14 02:42:43;;;;;;;277.02;10.75;;;;;;;20.06;51.15;98493.22;7295807;19;131000;-37
2024/01/14 02:45:08;;;;;;;214.20;8.13;;;;;;;20.09;51.30;98505.13;7296447;19;129154;-38
2024/01/14 02:47:34;;;;;;;157.90;6.38;;;;;;;20.11;51.39;98493.56;7294407;19;130076;-39
2024/01/14 02:49:59;;;;;;;183.40;7.18;;;;;;;20.13;51.09;98498.63;7295060;19;129594;-43
2024/01/14 02:52:24;;;;;;;252.88;9.98;;;;;;;20.13;51.08;98493.41;7295528;19;129165;-40
2024/01/14 02:54:50;;;;;;;210.68;7.88;;;;;;;20.18;51.51;98485.97;7294716;19;129163;-39
2024/01/14 02:57:15;;;;;;;175.32;6.70;;;;;;;20.09;51.60;98492.91;7294599;19;129341;-37
2024/01/14 02:59:40;;;;;;;212.77;8.23;;;;;;;20.11;51.20;98498.78;7296498;19;132102;-39
2024/01/14 03:02:06;;;;;;;202.10;8.05;;;;;;;20.07;51.50;98500.06;7294141;19;130259;-41
2024/01/14 03:04:31;;;;;;;144.18;5.88;;;;;;;19.75;51.94;98479.03;7293153;19;129182;-38
2024/01/14 03:06:57;;;;;;;161.05;6.47;;;;;;;19.69;52.61;98481.44;7294900;19;131177;-37
2024/01/14 03:09:22;;;;;;;186.15;7.28;;;;;;;19.67;52.72;98486.00;7295141;19;130534;-40
2024/01/14 03:11:47;;;;;;;158.02;6.03;;;;;;;19.69;52.90;98481.44;7295789;19;131513;-41
2024/01/14 03:14:13;;;;;;;220.27;8.98;;;;;;;19.69;53.05;98473.63;7294187;19;131508;-38
2024/01/14 03:16:38;;;;;;;178.85;6.97;;;;;;;19.64;52.80;98476.69;7293117;19;131550;-42
2024/01/14 03:19:03;;;;;;;255.73;10.10;;;;;;;19.68;52.74;98478.03;7294420;19;130787;-42
2024/01/14 03:21:29;;;;;;;134.23;5.20;;;;;;;19.68;52.46;98472.00;7295582;19;129777;-39
2024/01/14 03:23:54;;;;;;;177.00;7.00;;;;;;;19.69;52.25;98471.84;7293758;19;129888;-44
2024/01/14 03:26:19;;;;;;;175.85;6.88;;;;;;;19.72;52.78;98465.50;7293969;19;129350;-42
2024/01/14 03:28:45;;;;;;;252.93;9.68;;;;;;;19.73;52.43;98464.53;7291298;19;130106;-40
2024/01/14 03:31:15;;;;;;;196.68;7.50;;;;;;;19.72;51.83;98463.69;7295651;19;130551;-41
2024/01/14 03:33:44;;;;;;;149.43;5.82;;;;;;;19.70;52.69;98459.63;7293847;19;129331;-37
2024/01/14 03:36:16;;;;;;;177.23;7.00;;;;;;;19.69;52.28;98447.53;7293640;19;129723;-41
2024/01/14 03:38:42;;;;;;;222.15;8.60;;;;;;;19.69;52.34;98458.78;7292740;19;130343;-38
2024/01/14 03:41:07;;;;;;;235.80;9.33;;;;;;;19.68;53.25;98461.56;7294693;19;130453;-44
2024/01/14 03:43:33;;;;;;;150.07;5.82;;;;;;;19.63;52.48;98445.56;7293069;19;129456;-44
2024/01/14 03:45:58;;;;;;;182.88;7.10;;;;;;;19.64;53.10;98448.00;7292097;19;129161;-39
2024/01/14 03:48:23;;;;;;;242.98;9.50;;;;;;;19.45;53.25;98414.34;7293790;19;131479;-40
2024/01/14 03:50:49;;;;;;;231.63;9.10;;;;;;;19.62;53.44;98454.38;7296238;19;133115;-40
2024/01/14 03:53:15;;;;;;;185.73;7.43;;;;;;;19.46;53.45;98426.41;7292836;19;129365;-45
2024/01/14 03:55:40;;;;;;;116.63;4.70;;;;;;;19.66;53.68;98458.28;7293578;19;130099;-41
2024/01/14 03:58:05;;;;;;;286.63;11.40;;;;;;;19.70;52.83;98439.56;7291654;19;130370;-42
2024/01/14 04:00:31;;;;;;;121.20;4.78;;;;;;;19.77;52.92;98439.75;7294133;19;130162;-37
2024/01/14 04:02:56;;;;;;;163.63;6.32;;;;;;;19.78;52.45;98430.97;7292899;19;129511;-38
2024/01/14 04:05:22;;;;;;;182.02;7.07;;;;;;;19.80;52.10;98436.84;7292824;19;132664;-40
2024/01/14 04:07:49;;;;;;;217.43;8.45;;;;;;;19.74;52.92;98434.84;7291776;19;130132;-43
2024/01/14 04:10:15;;;;;;;179.93;7.15;;;;;;;19.55;52.85;98403.81;7294660;19;131530;-37
2024/01/14 04:12:41;;;;;;;142.65;5.78;;;;;;;19.72;52.48;98431.59;7292833;19;129670;-43
2024/01/14 04:15:07;;;;;;;220.10;8.70;;;;;;;19.65;53.07;98430.59;7291381;19;131097;-38
2024/01/14 04:17:33;;;;;;;214.10;8.23;;;;;;;19.65;52.81;98430.59;7293804;19;131437;-41
2024/01/14 04:19:59;;;;;;;144.32;5.70;;;;;;;19.69;53.03;98434.50;7293956;19;130374;-45
2024/01/14 04:22:26;;;;;;;93.85;3.70;;;;;;;19.63;52.74;98432.53;7293018;19;129603;-42
2024/01/14 04:24:51;;;;;;;181.02;7.22;;;;;;;19.66;51.89;98427.00;7289942;19;129180;-39
2024/01/14 04:27:16;;;;;;;223.48;8.65;;;;;;;19.53;52.58;98411.78;7291083;19;130725;-39
2024/01/14 04:29:42;;;;;;;157.98;6.32;;;;;;;19.71;52.33;98441.22;7292932;19;131038;-41
2024/01/14 04:32:07;;;;;;;161.65;6.45;;;;;;;19.73;52.35;98449.69;7291930;19;129498;-43
2024/01/14 04:34:33;;;;;;;189.65;7.13;;;;;;;19.70;52.70;98433.56;7291437;19;129786;-38
2024/01/14 04:36:58;;;;;;;213.68;8.48;;;;;;;19.69;52.73;98437.94;7291488;19;129468;-41
2024/01/14 04:39:24;;;;;;;146.65;5.80;;;;;;;19.69;52.88;98427.50;7292405;19;130072;-44
2024/01/14 04:41:49;;;;;;;176.75;6.82;;;;;;;19.51;52.47;98398.09;7292244;19;129457;-42
2024/01/14 04:44:15;;;;;;;332.80;13.57;;;;;;;19.68;52.43;98425.06;7292051;19;133653;-37
2024/01/14 04:46:43;;;;;;;203.85;7.72;;;;;;;19.48;52.47;98399.19;7293076;19;129550;-43
2024/01/14 04:49:09;;;;;;;161.23;6.43;;;;;;;19.67;52.93;98429.44;7288603;19;130463;-40
2024/01/14 04:51:34;;;;;;;236.38;9.18;;;;;;;19.65;53.11;98414.94;7293451;19;130732;-41
2024/01/14 04:54:01;;;;;;;192.68;7.40;;;;;;;19.64;53.29;98408.06;7291747;19;129618;-42
2024/01/14 04:56:27;;;;;;;210.90;8.25;;;;;;;19.61;52.90;98418.81;7291212;19;131341;-39
2024/01/14 04:58:52;;;;;;;178.10;7.05;;;;;;;19.63;52.54;98415.09;7289053;19;129411;-40
2024/01/14 05:01:18;;;;;;;249.70;9.70;;;;;;;19.58;52.98;98417.34;7291605;19;129489;-37
2024/01/14 05:03:43;;;;;;;241.43;9.10;;;;;;;19.61;52.80;98430.06;7292533;19;129020;-41
2024/01/14 05:06:08;;;;;;;177.18;7.13;;;;;;;19.58;52.49;98421.75;7290838;19;130793;-41
2024/01/14 05:08:34;;;;;;;158.23;6.15;;;;;;;19.60;52.69;98418.03;7289269;19;130950;-39
2024/01/14 05:10:59;;;;;;;226.70;8.90;;;;;;;19.62;53.10;98420.47;7291260;19;129969;-39
2024/01/14 05:13:24;;;;;;;200.70;7.55;;;;;;;19.51;52.53;98398.09;7290917;19;129854;-39
2024/01/14 05:15:50;;;;;;;184.70;7.07;;;;;;;19.64;51.90;98414.13;7292534;19;130098;-37
2024/01/14 05:18:15;;;;;;;191.13;7.60;;;;;;;19.71;52.34;98432.56;7289715;19;130400;-43
2024/01/14 05:20:41;;;;;;;241.73;9.15;;;;;;;19.71;52.60;98414.31;7291433;19;130155;-39
2024/01/14 05:23:08;;;;;;;196.50;7.75;;;;;;;19.70;51.84;98418.69;7290579;19;129175;-39
2024/01/14 05:25:33;;;;;;;219.23;8.70;;;;;;;19.67;52.26;98418.22;7294728;19;131666;-40
2024/01/14 05:27:59;;;;;;;221.23;8.82;;;;;;;19.66;52.80;98422.59;7296405;19;130367;-41
2024/01/14 05:30:24;;;;;;;241.55;9.25;;;;;;;19.65;52.40;98418.34;7297807;19;130263;-39
2024/01/14 05:32:49;;;;;;;212.43;8.23;;;;;;;19.60;52.64;98414.59;7299236;19;131175;-40
2024/01/14 05:35:15;;;;;;;192.57;7.63;;;;;;;19.63;52.58;98416.88;7299944;19;131188;-37
2024/01/14 05:37:40;;;;;;;164.68;6.55;;;;;;;19.63;53.25;98412.50;7298215;19;131295;-45
2024/01/14 05:40:06;;;;;;;206.75;8.10;;;;;;;19.64;52.79;98423.72;7296080;19;129612;-45
2024/01/14 05:42:31;;;;;;;126.30;5.00;;;;;;;19.62;52.80;98404.84;7299620;19;130089;-43
2024/01/14 05:44:57;;;;;;;187.70;7.30;;;;;;;19.68;53.14;98414.63;7298358;19;131174;-36
2024/01/14 05:47:22;;;;;;;122.35;4.80;;;;;;;19.80;52.47;98416.00;7296801;19;129324;-37
2024/01/14 05:49:47;;;;;;;232.07;8.60;;;;;;;19.84;51.96;98415.50;7297744;19;129263;-43
2024/01/14 05:52:13;;;;;;;221.20;8.77;;;;;;;19.85;51.44;98405.91;7296375;19;129096;-42
2024/01/14 05:54:42;;;;;;;198.90;7.55;;;;;;;19.88;51.33;98411.63;7297405;19;130124;-39
2024/01/14 05:57:08;;;;;;;174.85;6.75;;;;;;;19.94;51.36;98410.16;7297567;19;131213;-39
2024/01/14 05:59:33;;;;;;;223.30;8.48;;;;;;;19.90;51.13;98407.06;7296987;19;129721;-39
2024/01/14 06:01:58;;;;;;;183.15;7.18;;;;;;;19.99;50.77;98405.28;7296432;19;129507;-44
2024/01/14 06:04:24;;;;;;;155.43;6.07;;;;;;;20.00;50.84;98407.75;7296733;19;129477;-36
2024/01/14 06:06:49;;;;;;;176.95;6.60;;;;;;;20.00;50.93;98406.94;7297111;19;130263;-42
2024/01/14 06:09:14;;;;;;;216.68;8.65;;;;;;;20.02;50.54;98407.59;7294810;19;129674;-43
2024/01/14 06:11:40;;;;;;;264.42;9.88;;;;;;;20.00;50.83;98409.56;7296000;19;129704;-39
2024/01/14 06:14:05;;;;;;;170.45;6.60;;;;;;;19.99;50.23;98410.50;7297486;19;131117;-34
2024/01/14 06:16:30;;;;;;;192.70;7.57;;;;;;;19.96;51.40;98398.63;7296207;19;129535;-38
2024/01/14 06:18:56;;;;;;;184.70;7.05;;;;;;;19.80;51.51;98382.09;7294689;19;129559;-35
2024/01/14 06:21:21;;;;;;;129.57;5.07;;;;;;;19.86;51.77;98404.94;7297911;19;129558;-35
2024/01/14 06:23:46;;;;;;;227.63;8.93;;;;;;;19.79;52.47;98407.34;7292269;19;129583;-36
2024/01/14 06:26:18;;;;;;;247.23;9.65;;;;;;;19.74;52.63;98395.75;7296664;19;130532;-40
2024/01/14 06:28:44;;;;;;;204.52;7.82;;;;;;;19.73;52.42;98397.56;7294515;19;129834;-37
2024/01/14 06:31:10;;;;;;;141.27;5.45;;;;;;;19.63;52.38;98394.25;7293803;19;129088;-35
2024/01/14 06:33:35;;;;;;;186.02;7.10;;;;;;;19.70;53.08;98410.09;7295617;19;130149;-39
2024/01/14 06:36:06;;;;;;;253.55;9.45;;;;;;;19.66;52.37;98406.13;7296472;19;133160;-38
2024/01/14 06:38:34;;;;;;;278.27;11.02;;;;;;;19.63;52.94;98396.03;7290509;19;130874;-40
2024/01/14 06:41:00;;;;;;;173.23;6.78;;;;;;;19.64;53.10;98408.06;7295164;19;129721;-36
2024/01/14 06:43:25;;;;;;;232.45;8.82;;;;;;;19.64;53.21;98402.88;7295690;19;130044;-38
2024/01/14 06:45:50;;;;;;;224.52;9.00;;;;;;;19.77;52.55;98408.47;7295817;19;130928;-41
2024/01/14 06:48:16;;;;;;;213.60;8.63;;;;;;;19.78;51.92;98415.31;7293293;19;130101;-34
2024/01/14 06:50:41;;;;;;;105.13;4.22;;;;;;;19.81;52.51;98410.63;7296617;19;129385;-35
2024/01/14 06:53:06;;;;;;;207.27;8.15;;;;;;;19.81;51.88;98421.06;7293629;19;130404;-39
2024/01/14 06:55:32;;;;;;;236.85;9.02;;;;;;;19.82;51.44;98420.06;7292410;19;131141;-40
2024/01/14 06:57:57;;;;;;;259.70;10.07;;;;;;;19.77;52.86;98411.06;7292364;19;130262;-39
2024/01/14 07:00:22;;;;;;;137.93;5.75;;;;;;;19.81;52.17;98420.22;7296981;19;131451;-40
2024/01/14 07:02:48;;;;;;;172.20;6.53;;;;;;;19.81;52.32;98412.41;7294102;19;130245;-34
2024/01/14 07:05:13;;;;;;;248.50;9.35;;;;;;;19.80;51.65;98418.59;7294553;19;131037;-37
2024/01/14 07:07:39;;;;;;;232.55;9.10;;;;;;;19.88;51.17;98421.25;7293645;19;131267;-39
2024/01/14 07:10:05;;;;;;;230.20;8.75;;;;;;;19.80;51.65;98413.38;7291647;19;132074;-39
2024/01/14 07:12:30;;;;;;;162.52;6.22;;;;;;;19.78;52.20;98425.75;7293055;19;130901;-38
2024/01/14 07:14:56;;;;;;;242.27;9.38;;;;;;;19.70;52.10;98423.13;7289737;19;130645;-36
2024/01/14 07:17:21;;;;;;;100.18;4.15;;;;;;;19.73;52.40;98428.03;7293264;19;130450;-40
2024/01/14 07:19:47;;;;;;;193.73;7.40;;;;;;;19.68;52.26;98427.66;7289530;19;131469;-40
2024/01/14 07:22:13;;;;;;;185.77;7.50;;;;;;;19.66;52.31;98419.19;7293764;19;130106;-37
2024/01/14 07:24:38;;;;;;;205.68;7.68;;;;;;;19.68;52.32;98422.44;7293749;19;131278;-37
2024/01/14 07:27:04;;;;;;;200.75;7.78;;;;;;;19.66;52.22;98427.00;7293602;19;136087;-39
2024/01/14 07:29:29;;;;;;;214.45;8.48;;;;;;;19.65;52.77;98420.16;7290325;19;130395;-41
2024/01/14 07:31:55;;;;;;;255.70;10.02;;;;;;;19.61;52.35;98424.03;7293867;19;130251;-34
2024/01/14 07:34:21;;;;;;;210.10;8.97;;;;;;;19.62;52.72;98420.47;7294199;19;131887;-38
2024/01/14 07:36:46;;;;;;;201.40;7.88;;;;;;;19.59;52.48;98429.41;7292090;19;131578;-36
2024/01/14 07:39:12;;;;;;;162.35;6.53;;;;;;;19.48;52.63;98398.41;7293161;19;130020;-39
2024/01/14 07:41:39;;;;;;;174.32;6.55;;;;;;;19.67;52.73;98423.44;7293610;19;130128;-39
2024/01/14 07:44:05;;;;;;;;;;;;;;;19.72;53.74;98426.41;7294829;19;131269;-37
2024/01/14 07:46:31;;;;;;;171.80;6.78;;;;;;;19.71;52.60;98419.53;7292471;19;130304;-37
2024/01/14 07:48:56;;;;;;;246.77;9.60;;;;;;;19.78;52.05;98418.75;7288262;19;129571;-43
2024/01/14 07:51:22;;;;;;;194.55;7.78;;;;;;;19.78;52.54;98417.94;7291655;19;130098;-42
2024/01/14 07:53:47;;;;;;;191.02;7.18;;;;;;;19.57;52.87;98386.22;7292622;19;129170;-39
2024/01/14 07:56:12;;;;;;;227.80;8.82;;;;;;;19.66;52.03;98421.78;7293566;19;130109;-37
2024/01/14 07:58:38;;;;;;;244.68;9.52;;;;;;;19.56;52.95;98410.66;7290426;19;131519;-42
2024/01/14 08:01:05;;;;;;;241.07;9.35;;;;;;;19.61;53.23;98418.81;7291008;19;130105;-44
2024/01/14 08:03:30;;;;;;;111.93;4.55;;;;;;;19.64;53.09;98418.50;7294472;19;132251;-41
2024/01/14 08:05:56;;;;;;;202.75;8.15;;;;;;;19.56;53.16;98413.25;7293603;19;130723;-37
2024/01/14 08:08:21;;;;;;;274.00;11.15;;;;;;;19.64;52.70;98423.72;7287574;19;129541;-41
2024/01/14 08:10:48;;;;;;;214.05;8.02;;;;;;;19.67;52.17;98429.44;7292459;19;130214;-46
2024/01/14 08:13:14;;;;;;;160.10;6.15;;;;;;;19.63;52.78;98438.56;7292947;19;130656;-40
2024/01/14 08:15:39;;;;;;;134.80;5.30;;;;;;;19.63;52.88;98437.75;7292367;19;129755;-37
2024/01/14 08:18:04;;;;;;;186.02;7.28;;;;;;;19.62;52.86;98438.72;7288791;19;130465;-38
2024/01/14 08:20:31;;;;;;;259.58;10.45;;;;;;;19.64;52.74;98434.16;7292829;19;134861;-37
2024/01/14 08:22:56;;;;;;;210.07;7.97;;;;;;;19.59;52.94;98431.19;7291981;19;130782;-39
2024/01/14 08:25:22;;;;;;;164.15;6.45;;;;;;;19.61;52.90;98434.47;7289188;19;130018;-38
2024/01/14 08:27:49;;;;;;;258.90;10.10;;;;;;;19.60;52.71;98438.88;7290297;19;129143;-40
2024/01/14 08:30:14;;;;;;;172.15;6.65;;;;;;;19.60;53.10;98448.47;7291409;19;131836;-37
2024/01/14 08:32:40;;;;;;;189.75;7.43;;;;;;;19.58;52.86;98435.59;7292700;19;130122;-38
2024/01/14 08:35:05;;;;;;;154.85;6.18;;;;;;;19.58;52.67;98435.59;7290518;19;129467;-39
2024/01/14 08:37:31;;;;;;;236.25;9.43;;;;;;;19.56;53.35;98441.94;7290808;19;131759;-39
2024/01/14 08:39:56;;;;;;;196.13;7.60;;;;;;;19.55;53.25;98437.69;7290631;19;132088;-37
2024/01/14 08:42:21;;;;;;;143.57;5.57;;;;;;;19.60;53.51;98445.88;7289697;19;130664;-38
2024/01/14 08:44:47;;;;;;;160.77;6.15;;;;;;;19.61;53.25;98450.94;7291962;19;129292;-38
2024/01/14 08:47:13;;;;;;;266.27;10.43;;;;;;;19.63;52.78;98450.78;7291228;19;129391;-39
2024/01/14 08:49:40;;;;;;;270.58;10.68;;;;;;;19.54;53.09;98436.06;7281891;19;130582;-38
2024/01/14 08:52:07;;;;;;;234.50;9.65;;;;;;;19.59;52.70;98446.84;7288964;19;130506;-38
2024/01/14 08:54:34;;;;;;;271.00;11.15;;;;;;;19.65;52.78;98446.22;7282142;19;129978;-37
2024/01/14 08:56:59;;;;;;;245.13;9.32;;;;;;;19.64;52.96;98449.78;7289740;19;129169;-39
2024/01/14 08:59:24;;;;;;;320.17;12.60;;;;;;;19.59;52.87;98446.84;7286051;19;130729;-42
2024/01/14 09:01:50;;;;;;;155.55;5.97;;;;;;;19.44;52.38;98428.34;7296570;19;131416;-43
2024/01/14 09:04:15;;;;;;;240.35;10.25;;;;;;;19.63;52.07;98453.38;7294869;19;130695;-46
2024/01/14 09:06:40;;;;;;;196.85;7.55;;;;;;;19.67;52.13;98449.50;7296919;19;129879;-44
2024/01/14 09:09:06;;;;;;;138.48;5.47;;;;;;;19.64;52.49;98450.63;7295316;19;130183;-38
2024/01/14 09:11:32;;;;;;;225.63;8.60;;;;;;;19.65;52.22;98454.06;7296960;19;130727;-39
2024/01/14 09:13:58;;;;;;;133.27;5.18;;;;;;;19.66;52.28;98458.28;7297751;19;130132;-40
2024/01/14 09:16:23;;;;;;;267.38;10.40;;;;;;;19.56;52.36;98423.69;7296238;19;130917;-41
2024/01/14 09:18:49;;;;;;;162.25;6.35;;;;;;;19.67;52.93;98454.72;7290240;19;131116;-41
2024/01/14 09:21:14;;;;;;;173.93;6.90;;;;;;;19.60;52.28;98438.06;7295593;19;130300;-41
2024/01/14 09:23:40;;;;;;;289.48;13.25;;;;;;;19.71;52.43;98458.63;7289193;19;130063;-44
2024/01/14 09:26:05;;;;;;;217.75;9.77;;;;;;;19.68;53.16;98456.34;7280372;19;129732;-46
2024/01/14 09:28:32;;;;;;;167.57;6.53;;;;;;;19.68;53.18;98464.16;7295356;19;130622;-40
2024/01/14 09:30:57;;;;;;;205.77;9.93;;;;;;;19.75;52.56;98467.81;7295904;19;131128;-40
2024/01/14 09:33:22;;;;;;;218.68;8.63;;;;;;;19.62;53.03;98456.97;7296171;19;129907;-43
2024/01/14 09:35:48;;;;;;;219.55;8.50;;;;;;;19.62;52.95;98460.38;7292614;19;129205;-44
2024/01/14 09:38:13;;;;;;;171.70;6.57;;;;;;;19.58;53.09;98458.25;7294343;19;130252;-43
2024/01/14 09:40:40;;;;;;;198.45;7.70;;;;;;;19.59;53.34;98463.31;7295876;19;129551;-40
2024/01/14 09:43:09;;;;;;;232.18;8.85;;;;;;;19.57;53.14;98454.00;7296078;19;129484;-45
2024/01/14 09:45:35;;;;;;;261.98;9.95;;;;;;;19.62;52.36;98451.75;7296142;19;129787;-41
2024/01/14 09:48:02;;;;;;;198.98;7.70;;;;;;;19.61;53.28;98442.28;7295115;19;130229;-42
2024/01/14 09:50:31;;;;;;;213.05;8.15;;;;;;;19.62;52.41;98457.78;7294192;19;130714;-38
2024/01/14 09:52:58;;;;;;;221.07;8.50;;;;;;;19.60;52.61;98457.13;7294903;19;129979;-41
2024/01/14 09:55:27;;;;;;;232.20;8.90;;;;;;;19.44;53.53;98426.56;7295978;19;129892;-38
2024/01/14 09:57:53;;;;;;;227.27;8.65;;;;;;;19.63;51.98;98435.13;7293225;19;130374;-38
2024/01/14 10:00:22;;;;;;;191.77;7.28;;;;;;;19.62;52.77;98441.34;7293720;19;131884;-38
2024/01/14 10:02:48;;;;;;;226.23;9.13;;;;;;;19.61;52.35;98440.50;7295909;19;131571;-38
2024/01/14 10:05:14;;;;;;;223.52;8.65;;;;;;;19.60;52.17;98438.88;7292160;19;129221;-38
2024/01/14 10:07:41;;;;;;;196.90;7.68;;;;;;;19.58;52.28;98434.78;7290802;19;129950;-38
2024/01/14 10:10:07;;;;;;;313.55;12.40;;;;;;;19.63;52.40;98432.53;7292057;19;131771;-38
2024/01/14 10:12:33;;;;;;;249.67;10.00;;;;;;;19.62;53.33;98433.50;7293328;19;131350;-38
2024/01/14 10:14:59;;;;;;;221.02;8.60;;;;;;;19.56;52.51;98429.72;7295425;19;129979;-38
2024/01/14 10:17:25;;;;;;;250.27;9.95;;;;;;;19.55;53.05;98422.06;7292388;19;130418;-38
2024/01/14 10:19:54;;;;;;;174.63;7.00;;;;;;;19.57;52.69;98426.13;7293870;19;130397;-37
2024/01/14 10:22:21;;;;;;;211.25;8.15;;;;;;;19.59;53.31;98425.97;7291227;19;132531;-38
2024/01/14 10:24:54;;;;;;;247.52;9.55;;;;;;;19.56;53.23;98421.91;7292912;19;130734;-38
2024/01/14 10:27:21;;;;;;;198.48;7.70;;;;;;;19.54;53.36;98412.59;7293385;19;131095;-38
2024/01/14 10:29:47;;;;;;;154.98;6.38;;;;;;;19.60;53.34;98422.41;7290704;19;130437;-40
2024/01/14 10:32:13;;;;;;;205.20;8.10;;;;;;;19.63;53.45;98416.88;7294030;19;129184;-39
2024/01/14 10:34:40;;;;;;;204.00;7.82;;;;;;;19.60;53.30;98412.81;7292082;19;129991;-38
2024/01/14 10:37:05;;;;;;;;;;;;;;;19.61;54.30;98413.59;7293869;19;131276;-44
2024/01/14 10:39:31;;;;;;;202.60;8.03;;;;;;;19.61;53.23;98413.59;7295047;19;131560;-40
2024/01/14 10:41:57;;;;;;;211.70;8.35;;;;;;;19.65;52.93;98409.72;7295589;19;130813;-41
2024/01/14 10:44:22;;;;;;;224.90;9.15;;;;;;;19.63;53.01;98401.25;7288877;19;130310;-36
2024/01/14 10:46:52;;;;;;;183.85;7.13;;;;;;;19.64;52.91;98392.44;7292674;19;130838;-38
2024/01/14 10:49:24;;;;;;;264.48;10.30;;;;;;;19.64;52.76;98392.44;7291525;19;130784;-34
2024/01/14 10:51:57;;;;;;;175.38;6.88;;;;;;;19.62;53.45;98394.41;7294104;19;129506;-39
2024/01/14 10:54:35;;;;;;;272.92;11.13;;;;;;;19.61;52.32;98395.34;7291196;19;131314;-40
2024/01/14 10:57:19;;;;;;;217.27;8.20;;;;;;;19.64;52.46;98398.47;7290359;19;131332;-38
2024/01/14 10:59:44;;;;;;;230.30;9.23;;;;;;;19.62;52.50;98394.41;7292971;19;131574;-37
2024/01/14 11:02:19;;;;;;;218.70;8.55;;;;;;;19.43;52.39;98370.22;7294646;19;129183;-36
2024/01/14 11:04:45;;;;;;;135.38;5.38;;;;;;;19.60;52.60;98388.53;7289247;19;131083;-39